AMCK1: Grand River, Americus

                                SHEF ID:       AMCK1     NEOSHO R NR AMERICUS, KS
STATION TYPE:
Regulating: Stage = 27.50, Flow = 14160

PRECIP STAGE RIV-FLOW BAT-LOAD
in ft cfs volt
Ccp-Rev Ccp-Rev Ccp-Rev Ccp-Rev
(America/Chicago)
05/05 00:00 0.00 4.74 389 12.36
05/05 01:00 0.00 4.73 386 12.35
05/05 02:00 0.00 4.76 395 12.32
05/05 03:00 0.00 4.77 398 12.31
05/05 04:00 0.00 4.81 410 12.30
05/05 05:00 0.00 4.90 438 12.27
05/05 06:00 0.00 5.05 467 12.26
05/05 07:00 0.00 5.22 499 12.27
05/05 08:00 0.00 5.36 529 12.25
05/05 09:00 0.00 5.46 551 12.25
05/05 10:00 0.00 5.59 580 12.25
05/05 11:00 0.00 5.73 612 12.25
05/05 12:00 0.00 5.84 638 12.27
05/05 13:00 0.00 5.92 656 12.26
05/05 14:00 0.00 5.91 654 12.29
05/05 15:00 0.00 5.88 647 12.30
05/05 16:00 0.00 5.81 631 12.29
05/05 17:00 0.00 5.73 612 12.31
05/05 18:00 0.00 5.65 594 12.30
05/05 19:00 0.00 5.56 573 12.29
05/05 20:00 0.00 5.49 558 12.25
05/05 21:00 0.00 5.41 540 12.24
05/05 22:00 0.00 5.33 522 12.24
05/05 23:00 ---- ---- ---- 12.24
Data processed at Wed 06May2026 04:30 GMT

NOTICE: If you are parsing this page

Please convert to using our Data API. Starting early 2026 we will be migrating to: https://water.usace.army.mil with modern pages rendered in JavaScript. When this migration completes you will no longer be able to scrape this page! CWMSDataAPI (CDA)

Timeseries IDs (TSIDs)

TSIDs used from left to right in the data table
AMER.Precip-Inc.Total.1Hour.1Hour.Ccp-Rev
AMER.Stage.Inst.1Hour.0.Ccp-Rev
AMER.Flow.Inst.1Hour.0.Ccp-Rev
AMER.Volt-Battery Load.Inst.1Hour.0.Ccp-Rev

                            

All information presented herein is the property of the government of the United States of America and may be revised or deleted at any time without prior notice. Dissemination of this information without the expressed written consent of the Public Affairs Office, Tulsa District U.S. Army Corps of Engineers is strictly prohibited. These data are gathered electronically and, as presented, have NOT undergone any form of quality control. These data are NOT guaranteed to be valid or correct.